createdAt,value
2023-05-02T00:00:05.815Z,39.99
2023-05-02T00:03:08.618Z,40.17
2023-05-02T00:06:12.227Z,40.33
2023-05-02T00:09:15.739Z,39.99
2023-05-02T00:12:18.633Z,40.12
2023-05-02T00:15:21.516Z,40.10
2023-05-02T00:18:24.491Z,39.47
2023-05-02T00:21:29.264Z,39.39
2023-05-02T00:24:31.903Z,39.70
2023-05-02T00:27:34.481Z,39.14
2023-05-02T00:30:37.385Z,39.41
2023-05-02T00:33:39.952Z,38.94
2023-05-02T00:36:42.758Z,39.59
2023-05-02T00:39:45.399Z,39.83
2023-05-02T00:42:48.315Z,40.17
2023-05-02T00:45:51.159Z,39.63
2023-05-02T00:48:54.058Z,39.64
2023-05-02T00:51:56.824Z,39.52
2023-05-02T00:55:01.632Z,39.02
2023-05-02T00:58:22.350Z,38.90
2023-05-02T01:01:48.792Z,39.06
2023-05-02T01:05:28.718Z,38.91
2023-05-02T01:08:45.376Z,38.58
2023-05-02T01:11:59.909Z,39.00
2023-05-02T01:15:06.342Z,38.38
2023-05-02T01:18:15.878Z,38.50
2023-05-02T01:21:19.026Z,38.93
2023-05-02T01:24:48.070Z,38.92
2023-05-02T01:28:21.582Z,39.13
2023-05-02T01:31:27.872Z,39.53
2023-05-02T01:34:32.741Z,39.11
2023-05-02T01:37:38.314Z,39.11
2023-05-02T01:40:46.040Z,39.15
2023-05-02T01:43:49.837Z,39.35
2023-05-02T01:46:55.104Z,39.09
2023-05-02T01:49:59.818Z,38.92
2023-05-02T01:53:04.894Z,38.78
2023-05-02T01:56:07.950Z,39.13
2023-05-02T01:59:17.058Z,39.66
2023-05-02T02:02:21.101Z,40.39
2023-05-02T02:05:25.134Z,40.78
2023-05-02T02:08:27.846Z,40.20
2023-05-02T02:11:37.602Z,40.73
2023-05-02T02:14:49.957Z,40.90
2023-05-02T02:18:00.852Z,40.64
2023-05-02T02:21:08.114Z,40.52
2023-05-02T02:24:13.347Z,41.22
2023-05-02T02:27:16.431Z,41.24
2023-05-02T02:30:19.514Z,41.53
2023-05-02T02:33:28.134Z,41.72
2023-05-02T02:36:49.810Z,41.92
2023-05-02T02:40:16.796Z,42.49
2023-05-02T02:43:27.644Z,42.33
2023-05-02T02:46:36.882Z,42.92
2023-05-02T02:50:12.559Z,42.98
2023-05-02T02:53:19.650Z,43.02
2023-05-02T02:56:29.006Z,43.42
2023-05-02T02:59:35.508Z,43.65
2023-05-02T03:02:41.753Z,43.74
2023-05-02T03:05:44.985Z,43.89
2023-05-02T03:08:48.401Z,44.08
2023-05-02T03:11:55.297Z,44.79
2023-05-02T03:15:27.306Z,44.73
2023-05-02T03:18:30.027Z,45.01
2023-05-02T03:21:34.176Z,44.68
2023-05-02T03:24:42.831Z,44.86
2023-05-02T03:27:48.356Z,45.36
2023-05-02T03:30:51.263Z,45.75
2023-05-02T03:33:54.603Z,45.66
2023-05-02T03:36:57.918Z,46.05
2023-05-02T03:40:01.878Z,46.24
2023-05-02T03:43:05.566Z,46.00
2023-05-02T03:46:11.573Z,46.32
2023-05-02T03:49:19.786Z,46.23
2023-05-02T03:52:24.731Z,46.68
2023-05-02T03:55:29.677Z,46.83
2023-05-02T03:58:36.425Z,47.22
2023-05-02T04:01:40.242Z,47.28
2023-05-02T04:04:44.594Z,47.80
2023-05-02T04:07:50.655Z,48.02
2023-05-02T04:10:54.195Z,47.77
2023-05-02T04:13:57.617Z,47.80
2023-05-02T04:17:00.287Z,47.82
2023-05-02T04:20:23.265Z,47.84
2023-05-02T04:23:28.822Z,48.00
2023-05-02T04:26:35.535Z,47.97
2023-05-02T04:29:42.637Z,48.28
2023-05-02T04:32:46.950Z,47.82
2023-05-02T04:35:50.606Z,47.86
2023-05-02T04:38:54.685Z,47.93
2023-05-02T04:41:58.062Z,47.66
2023-05-02T04:45:03.078Z,47.73
2023-05-02T04:48:05.981Z,47.96
2023-05-02T04:51:10.092Z,48.10
2023-05-02T04:54:12.980Z,47.61
2023-05-02T04:57:17.695Z,47.34
2023-05-02T05:00:24.716Z,47.54
2023-05-02T05:03:33.325Z,47.07
2023-05-02T05:06:36.481Z,46.78
2023-05-02T05:09:39.565Z,46.55
2023-05-02T05:12:42.475Z,46.61
2023-05-02T05:15:47.504Z,46.90
2023-05-02T05:18:53.917Z,46.67
2023-05-02T05:21:56.549Z,47.08
2023-05-02T05:24:59.565Z,46.53
2023-05-02T05:28:05.372Z,46.22
2023-05-02T05:31:14.487Z,46.33
2023-05-02T05:34:21.226Z,46.08
2023-05-02T05:37:25.393Z,46.13
2023-05-02T05:40:28.238Z,46.20
2023-05-02T05:43:35.591Z,45.77
2023-05-02T05:46:39.356Z,45.67
2023-05-02T05:49:43.982Z,45.15
2023-05-02T05:52:46.670Z,45.80
2023-05-02T05:55:49.440Z,44.30
2023-05-02T05:58:52.306Z,44.38
2023-05-02T06:01:55.069Z,45.02
2023-05-02T06:04:59.402Z,44.64
2023-05-02T06:08:02.362Z,43.83
2023-05-02T06:11:11.860Z,43.80
2023-05-02T06:14:14.925Z,43.97
2023-05-02T06:17:18.481Z,44.25
2023-05-02T06:20:21.397Z,43.77
2023-05-02T06:23:25.114Z,42.73
2023-05-02T06:26:28.092Z,43.41
2023-05-02T06:29:31.829Z,43.14
2023-05-02T06:32:34.622Z,42.11
2023-05-02T06:35:37.177Z,43.01
2023-05-02T06:38:39.978Z,41.90
2023-05-02T06:41:42.729Z,41.31
2023-05-02T06:44:51.521Z,40.96
2023-05-02T06:47:54.336Z,41.41
2023-05-02T06:50:57.300Z,41.61
2023-05-02T06:54:00.634Z,41.20
2023-05-02T06:57:03.310Z,41.79
2023-05-02T07:00:09.190Z,41.38
2023-05-02T07:03:11.927Z,40.94
2023-05-02T07:06:14.667Z,40.55
2023-05-02T07:09:17.514Z,40.81
2023-05-02T07:12:20.941Z,39.72
2023-05-02T07:15:23.623Z,39.26
2023-05-02T07:18:26.662Z,39.63
2023-05-02T07:21:29.316Z,38.87
2023-05-02T07:24:33.069Z,38.00
2023-05-02T07:27:35.678Z,38.45
2023-05-02T07:30:38.406Z,37.65
2023-05-02T07:33:41.300Z,37.40
2023-05-02T07:36:44.049Z,37.37
2023-05-02T07:39:46.787Z,38.07
2023-05-02T07:42:50.849Z,37.15
2023-05-02T07:45:56.536Z,38.07
2023-05-02T07:48:59.477Z,37.57
2023-05-02T07:52:02.556Z,37.19
2023-05-02T07:55:05.690Z,37.23
2023-05-02T07:58:08.298Z,37.44
2023-05-02T08:01:11.731Z,36.73
2023-05-02T08:04:14.570Z,36.70
2023-05-02T08:07:17.488Z,35.68
2023-05-02T08:10:20.429Z,35.92
2023-05-02T08:13:23.989Z,35.07
2023-05-02T08:16:26.717Z,34.66
2023-05-02T08:19:29.259Z,34.17
2023-05-02T08:22:32.002Z,33.97
2023-05-02T08:25:35.045Z,33.30
2023-05-02T08:28:43.192Z,32.64
2023-05-02T08:31:47.292Z,31.77
2023-05-02T08:34:49.966Z,31.40
2023-05-02T08:37:52.550Z,32.03
2023-05-02T08:40:55.267Z,32.03
2023-05-02T08:44:00.038Z,32.58
2023-05-02T08:47:03.234Z,31.31
2023-05-02T08:50:06.834Z,30.89
2023-05-02T08:53:11.178Z,30.31
2023-05-02T08:56:14.426Z,30.56
2023-05-02T08:59:18.770Z,30.34
2023-05-02T09:02:43.928Z,30.93
2023-05-02T09:05:56.691Z,29.98
2023-05-02T09:09:04.000Z,28.75
2023-05-02T09:12:06.787Z,27.67
2023-05-02T09:15:18.238Z,28.38
2023-05-02T09:18:23.587Z,28.49
2023-05-02T09:21:40.041Z,28.31
2023-05-02T09:24:43.088Z,28.34
2023-05-02T09:27:51.399Z,27.54
2023-05-02T09:31:49.635Z,27.23
2023-05-02T09:35:06.734Z,27.77
2023-05-02T09:38:21.133Z,27.36
2023-05-02T09:41:23.707Z,27.25
2023-05-02T09:44:37.037Z,27.16
2023-05-02T09:47:41.943Z,27.24
2023-05-02T09:50:45.324Z,26.71
2023-05-02T09:53:50.008Z,26.60
2023-05-02T09:56:56.504Z,26.21
2023-05-02T09:59:59.320Z,25.80
2023-05-02T10:03:04.800Z,25.06
2023-05-02T10:06:22.876Z,25.68
2023-05-02T10:09:28.020Z,24.95
2023-05-02T10:12:32.844Z,25.92
2023-05-02T10:15:42.592Z,23.91
2023-05-02T10:19:00.151Z,22.55
2023-05-02T10:22:03.715Z,19.98
2023-05-02T10:25:07.139Z,19.21
2023-05-02T10:28:11.324Z,18.31
2023-05-02T10:31:16.299Z,17.50
2023-05-02T10:34:19.097Z,17.34
2023-05-02T10:37:23.105Z,17.09
2023-05-02T10:40:27.463Z,15.51
2023-05-02T10:43:35.533Z,13.91
2023-05-02T10:46:43.404Z,15.59
2023-05-02T10:49:58.335Z,15.73
2023-05-02T10:53:23.727Z,16.01
2023-05-02T10:56:29.188Z,14.35
2023-05-02T10:59:42.743Z,12.52
2023-05-02T11:02:45.973Z,11.56
2023-05-02T11:06:18.186Z,13.25
2023-05-02T11:09:23.875Z,15.73
2023-05-02T11:12:48.744Z,15.14
2023-05-02T11:15:51.520Z,15.53
2023-05-02T11:19:01.431Z,14.80
2023-05-02T11:22:19.297Z,15.20
2023-05-02T11:25:36.779Z,17.45
2023-05-02T11:28:42.764Z,16.09
2023-05-02T11:31:52.687Z,15.21
2023-05-02T11:34:56.863Z,15.04
2023-05-02T11:38:04.791Z,18.46
2023-05-02T11:41:07.588Z,20.61
2023-05-02T11:44:10.687Z,19.08
2023-05-02T11:47:13.400Z,15.87
2023-05-02T11:50:16.966Z,18.90
2023-05-02T11:53:28.973Z,21.12
2023-05-02T11:56:32.363Z,21.94
2023-05-02T12:00:01.531Z,23.07
2023-05-02T12:03:08.493Z,19.73
2023-05-02T12:06:14.702Z,15.06
2023-05-02T12:09:17.975Z,16.48
2023-05-02T12:12:22.072Z,20.19
2023-05-02T12:15:25.870Z,20.38
2023-05-02T12:18:28.886Z,21.69
2023-05-02T12:21:33.606Z,17.94
2023-05-02T12:24:36.726Z,16.45
2023-05-02T12:27:39.494Z,17.60
2023-05-02T12:30:42.115Z,18.78
2023-05-02T12:33:52.586Z,19.38
2023-05-02T12:36:56.799Z,17.66
2023-05-02T12:40:00.823Z,16.19
2023-05-02T12:43:07.408Z,15.12
2023-05-02T12:46:11.298Z,16.38
2023-05-02T12:49:13.881Z,19.07
2023-05-02T12:52:21.057Z,20.30
2023-05-02T12:55:27.348Z,21.31
2023-05-02T12:58:40.067Z,22.86
2023-05-02T13:01:42.731Z,24.25
2023-05-02T13:04:45.380Z,25.33
2023-05-02T13:07:47.962Z,26.43
2023-05-02T13:10:50.660Z,26.53
2023-05-02T13:13:55.211Z,26.46
2023-05-02T13:16:59.350Z,26.90
2023-05-02T13:20:02.547Z,27.34
2023-05-02T13:23:05.824Z,27.49
2023-05-02T13:26:11.696Z,27.15
2023-05-02T13:29:14.618Z,26.61
2023-05-02T13:32:17.773Z,24.95
2023-05-02T13:35:20.416Z,24.76
2023-05-02T13:38:23.201Z,25.42
2023-05-02T13:41:26.184Z,25.80
2023-05-02T13:44:29.408Z,26.59
2023-05-02T13:47:33.611Z,26.70
2023-05-02T13:50:38.467Z,26.84
2023-05-02T13:53:41.182Z,26.24
2023-05-02T13:56:44.115Z,26.16
2023-05-02T13:59:47.899Z,26.42
2023-05-02T14:02:51.122Z,26.48
2023-05-02T14:05:53.721Z,26.33
2023-05-02T14:08:56.452Z,26.22
2023-05-02T14:12:02.113Z,26.40
2023-05-02T14:15:05.403Z,26.83
2023-05-02T14:18:08.607Z,26.78
2023-05-02T14:21:11.725Z,26.79
2023-05-02T14:24:16.523Z,26.91
2023-05-02T14:27:19.964Z,26.97
2023-05-02T14:30:22.571Z,27.09
2023-05-02T14:33:25.496Z,27.13
2023-05-02T14:36:30.331Z,27.56
2023-05-02T14:39:33.019Z,27.74
2023-05-02T14:42:36.300Z,27.91
2023-05-02T14:45:38.948Z,27.98
2023-05-02T14:48:41.703Z,28.46
2023-05-02T14:51:47.609Z,28.25
2023-05-02T14:54:50.545Z,28.57
2023-05-02T14:57:54.984Z,28.56
2023-05-02T15:01:00.406Z,28.78
2023-05-02T15:04:07.094Z,28.74
2023-05-02T15:07:11.765Z,29.02
2023-05-02T15:10:14.319Z,29.85
2023-05-02T15:13:17.662Z,30.38
2023-05-02T15:16:20.478Z,29.79
2023-05-02T15:19:25.250Z,28.96
2023-05-02T15:22:28.084Z,28.63
2023-05-02T15:25:31.204Z,27.56
2023-05-02T15:28:38.772Z,27.77
2023-05-02T15:31:41.673Z,27.73
2023-05-02T15:34:45.908Z,27.80
2023-05-02T15:37:48.504Z,28.31
2023-05-02T15:40:55.554Z,28.30
2023-05-02T15:43:58.786Z,29.18
2023-05-02T15:47:02.629Z,28.83
2023-05-02T15:50:06.676Z,29.03
2023-05-02T15:53:09.605Z,28.87
2023-05-02T15:56:12.511Z,29.75
2023-05-02T15:59:15.109Z,29.54
2023-05-02T16:02:18.920Z,29.38
2023-05-02T16:05:21.789Z,29.78
2023-05-02T16:08:24.476Z,29.98
2023-05-02T16:11:27.154Z,29.85
2023-05-02T16:14:31.249Z,30.18
2023-05-02T16:17:34.044Z,30.58
2023-05-02T16:20:37.013Z,29.85
2023-05-02T16:23:40.802Z,30.53
2023-05-02T16:26:45.616Z,30.23
2023-05-02T16:29:48.629Z,29.65
2023-05-02T16:32:51.773Z,29.69
2023-05-02T16:36:02.399Z,29.66
2023-05-02T16:39:05.787Z,29.49
2023-05-02T16:42:08.822Z,29.63
2023-05-02T16:45:12.128Z,29.65
2023-05-02T16:48:15.105Z,29.83
2023-05-02T16:51:17.911Z,31.78
2023-05-02T16:54:22.658Z,33.16
2023-05-02T16:57:25.254Z,34.42
2023-05-02T17:00:28.023Z,35.28
2023-05-02T17:03:30.910Z,35.62
2023-05-02T17:06:33.801Z,36.69
2023-05-02T17:09:38.741Z,37.78
2023-05-02T17:12:41.397Z,38.34
2023-05-02T17:15:44.212Z,39.13
2023-05-02T17:18:48.168Z,39.19
2023-05-02T17:21:52.169Z,40.27
2023-05-02T17:24:56.364Z,41.09
2023-05-02T17:28:00.100Z,40.55
2023-05-02T17:31:03.554Z,41.37
2023-05-02T17:34:07.171Z,41.12
2023-05-02T17:37:09.743Z,41.54
2023-05-02T17:40:13.038Z,41.67
2023-05-02T17:43:16.824Z,41.86
2023-05-02T17:46:19.857Z,42.18
2023-05-02T17:49:23.510Z,41.95
2023-05-02T17:52:26.646Z,41.93
2023-05-02T17:55:31.760Z,42.70
2023-05-02T17:58:37.400Z,42.13
2023-05-02T18:01:40.699Z,42.61
2023-05-02T18:04:45.303Z,41.93
2023-05-02T18:07:48.902Z,42.57
2023-05-02T18:10:54.285Z,42.85
2023-05-02T18:14:03.178Z,43.09
2023-05-02T18:17:09.809Z,42.98
2023-05-02T18:20:14.993Z,42.91
2023-05-02T18:23:17.713Z,43.12
2023-05-02T18:26:20.911Z,43.42
2023-05-02T18:29:24.333Z,43.30
2023-05-02T18:32:28.723Z,42.60
2023-05-02T18:36:36.597Z,44.12
2023-05-02T18:39:39.549Z,44.82
2023-05-02T18:42:43.544Z,44.86
2023-05-02T18:45:46.622Z,46.21
2023-05-02T18:48:49.526Z,47.52
2023-05-02T18:51:54.637Z,47.69
2023-05-02T18:54:57.693Z,48.84
2023-05-02T18:58:00.558Z,49.21
2023-05-02T19:01:17.252Z,49.91
2023-05-02T19:04:22.407Z,49.74
2023-05-02T19:07:25.445Z,49.79
2023-05-02T19:10:28.591Z,50.92
2023-05-02T19:13:32.591Z,50.47
2023-05-02T19:16:38.510Z,50.97
2023-05-02T19:19:41.881Z,51.35
2023-05-02T19:22:49.591Z,52.93
2023-05-02T19:25:59.308Z,53.50
2023-05-02T19:29:03.610Z,54.23
2023-05-02T19:32:07.538Z,54.58
2023-05-02T19:35:11.790Z,54.67
2023-05-02T19:38:15.138Z,54.85
2023-05-02T19:41:18.908Z,55.79
2023-05-02T19:44:22.460Z,56.63
2023-05-02T19:47:27.697Z,56.77
2023-05-02T19:50:31.699Z,56.95
2023-05-02T19:53:36.033Z,58.02
2023-05-02T19:56:38.728Z,58.15
2023-05-02T19:59:41.500Z,58.01
2023-05-02T20:02:45.615Z,58.31
2023-05-02T20:05:52.235Z,58.05
2023-05-02T20:08:56.690Z,58.49
2023-05-02T20:11:59.744Z,59.16
2023-05-02T20:15:02.842Z,58.88
2023-05-02T20:18:06.868Z,60.85
2023-05-02T20:21:10.166Z,61.46
2023-05-02T20:24:12.774Z,62.38
2023-05-02T20:27:15.528Z,62.65
2023-05-02T20:30:18.927Z,64.26
2023-05-02T20:33:27.358Z,64.19
2023-05-02T20:36:33.596Z,64.67
2023-05-02T20:39:36.490Z,65.15
2023-05-02T20:42:41.778Z,65.77
2023-05-02T20:45:45.672Z,66.31
2023-05-02T20:48:49.274Z,66.59
2023-05-02T20:51:52.280Z,66.55
2023-05-02T20:54:55.799Z,65.75
2023-05-02T20:57:58.442Z,66.42
2023-05-02T21:01:01.094Z,66.66
2023-05-02T21:04:04.175Z,67.13
2023-05-02T21:07:06.836Z,67.21
2023-05-02T21:10:10.028Z,68.19
2023-05-02T21:13:12.716Z,67.65
2023-05-02T21:16:19.585Z,68.64
2023-05-02T21:19:22.250Z,69.35
2023-05-02T21:22:25.138Z,69.71
2023-05-02T21:25:27.785Z,68.80
2023-05-02T21:28:30.524Z,67.88
2023-05-02T21:31:34.000Z,67.57
2023-05-02T21:34:36.558Z,68.34
2023-05-02T21:37:39.029Z,68.05
2023-05-02T21:40:41.869Z,68.91
2023-05-02T21:43:45.231Z,69.60
2023-05-02T21:46:47.876Z,67.66
2023-05-02T21:49:50.931Z,69.03
2023-05-02T21:52:53.519Z,69.33
2023-05-02T21:55:56.125Z,69.57
2023-05-02T21:58:58.810Z,69.60
2023-05-02T22:02:01.483Z,69.33
2023-05-02T22:05:04.819Z,69.20
2023-05-02T22:08:11.072Z,68.47
2023-05-02T22:11:15.370Z,68.64
2023-05-02T22:14:17.897Z,69.01
2023-05-02T22:17:21.675Z,68.05
2023-05-02T22:20:27.813Z,67.74
2023-05-02T22:23:31.191Z,68.18
2023-05-02T22:26:33.783Z,68.85
2023-05-02T22:29:36.664Z,69.88
2023-05-02T22:32:39.399Z,69.26
2023-05-02T22:35:42.167Z,69.37
2023-05-02T22:38:45.072Z,69.88
2023-05-02T22:41:47.821Z,70.49
2023-05-02T22:44:54.778Z,70.30
2023-05-02T22:47:57.646Z,70.12
2023-05-02T22:51:01.071Z,70.70
2023-05-02T22:54:04.837Z,70.26
2023-05-02T22:57:07.367Z,69.68
2023-05-02T23:00:10.950Z,70.08
2023-05-02T23:03:13.839Z,70.49
2023-05-02T23:06:18.506Z,69.82
2023-05-02T23:09:21.212Z,70.43
2023-05-02T23:12:24.160Z,71.16
2023-05-02T23:15:26.683Z,70.32
2023-05-02T23:18:29.388Z,70.45
2023-05-02T23:21:31.940Z,70.89
2023-05-02T23:24:34.872Z,70.68
2023-05-02T23:27:38.510Z,70.68
2023-05-02T23:30:41.347Z,71.20
2023-05-02T23:33:44.105Z,71.29
2023-05-02T23:36:47.644Z,71.98
2023-05-02T23:39:51.149Z,72.48
2023-05-02T23:42:54.615Z,72.53
2023-05-02T23:45:57.147Z,73.11
2023-05-02T23:48:59.683Z,73.41
2023-05-02T23:52:02.764Z,73.83
2023-05-02T23:55:10.348Z,73.45
2023-05-02T23:58:13.302Z,74.52
